sensor_id;sensor_type;location;lat;lon;timestamp;pressure;altitude;pressure_sealevel;temperature
13497;BMP180;6820;49.374;8.452;2022-11-20T00:00:03;100195.31;;;11.19
13497;BMP180;6820;49.374;8.452;2022-11-20T00:04:08;100198.94;;;11.22
13497;BMP180;6820;49.374;8.452;2022-11-20T00:08:11;100201.81;;;11.14
13497;BMP180;6820;49.374;8.452;2022-11-20T00:12:13;100205.78;;;11.09
13497;BMP180;6820;49.374;8.452;2022-11-20T00:16:17;100202.72;;;11.00
13497;BMP180;6820;49.374;8.452;2022-11-20T00:20:19;100196.56;;;11.11
13497;BMP180;6820;49.374;8.452;2022-11-20T00:24:21;100192.41;;;11.27
13497;BMP180;6820;49.374;8.452;2022-11-20T00:28:22;100193.88;;;11.38
13497;BMP180;6820;49.374;8.452;2022-11-20T00:32:24;100193.47;;;11.45
13497;BMP180;6820;49.374;8.452;2022-11-20T00:36:27;100190.63;;;11.55
13497;BMP180;6820;49.374;8.452;2022-11-20T00:40:29;100185.78;;;11.59
13497;BMP180;6820;49.374;8.452;2022-11-20T00:44:30;100204.88;;;11.53
13497;BMP180;6820;49.374;8.452;2022-11-20T00:48:32;100200.53;;;11.50
13497;BMP180;6820;49.374;8.452;2022-11-20T00:52:34;100201.94;;;11.45
13497;BMP180;6820;49.374;8.452;2022-11-20T00:56:35;100202.03;;;11.47
13497;BMP180;6820;49.374;8.452;2022-11-20T01:00:37;100202.97;;;11.49
13497;BMP180;6820;49.374;8.452;2022-11-20T01:04:39;100202.03;;;11.47
13497;BMP180;6820;49.374;8.452;2022-11-20T01:08:40;100193.38;;;11.43
13497;BMP180;6820;49.374;8.452;2022-11-20T01:12:42;100201.06;;;11.45
13497;BMP180;6820;49.374;8.452;2022-11-20T01:16:47;100192.44;;;11.41
13497;BMP180;6820;49.374;8.452;2022-11-20T01:20:49;100197.72;;;11.46
13497;BMP180;6820;49.374;8.452;2022-11-20T01:24:51;100188.97;;;11.55
13497;BMP180;6820;49.374;8.452;2022-11-20T01:28:53;100191.91;;;11.62
13497;BMP180;6820;49.374;8.452;2022-11-20T01:32:55;100180.97;;;11.63
13497;BMP180;6820;49.374;8.452;2022-11-20T01:36:57;100178.69;;;11.68
13497;BMP180;6820;49.374;8.452;2022-11-20T01:40:58;100176.84;;;11.65
13497;BMP180;6820;49.374;8.452;2022-11-20T01:45:00;100185.16;;;11.63
13497;BMP180;6820;49.374;8.452;2022-11-20T01:49:15;100194.03;;;11.55
13497;BMP180;6820;49.374;8.452;2022-11-20T01:53:21;100185.59;;;11.40
13497;BMP180;6820;49.374;8.452;2022-11-20T01:57:25;100175.06;;;11.49
13497;BMP180;6820;49.374;8.452;2022-11-20T02:01:28;100162.22;;;11.61
13497;BMP180;6820;49.374;8.452;2022-11-20T02:05:35;100166.28;;;11.74
13497;BMP180;6820;49.374;8.452;2022-11-20T02:09:37;100171.94;;;11.68
13497;BMP180;6820;49.374;8.452;2022-11-20T02:13:38;100172.09;;;11.71
13497;BMP180;6820;49.374;8.452;2022-11-20T02:17:45;100169.69;;;11.74
13497;BMP180;6820;49.374;8.452;2022-11-20T02:22:10;100163.50;;;11.85
13497;BMP180;6820;49.374;8.452;2022-11-20T02:26:15;100168.91;;;11.91
13497;BMP180;6820;49.374;8.452;2022-11-20T02:30:18;100159.69;;;11.93
13497;BMP180;6820;49.374;8.452;2022-11-20T02:34:19;100158.28;;;11.82
13497;BMP180;6820;49.374;8.452;2022-11-20T02:38:21;100141.63;;;11.87
13497;BMP180;6820;49.374;8.452;2022-11-20T02:42:22;100153.75;;;11.92
13497;BMP180;6820;49.374;8.452;2022-11-20T02:46:24;100145.50;;;11.96
13497;BMP180;6820;49.374;8.452;2022-11-20T02:50:26;100155.78;;;11.99
13497;BMP180;6820;49.374;8.452;2022-11-20T02:54:27;100141.47;;;12.00
13497;BMP180;6820;49.374;8.452;2022-11-20T02:58:29;100137.50;;;12.05
13497;BMP180;6820;49.374;8.452;2022-11-20T03:02:31;100142.56;;;12.05
13497;BMP180;6820;49.374;8.452;2022-11-20T03:06:33;100140.81;;;11.88
13497;BMP180;6820;49.374;8.452;2022-11-20T03:10:34;100143.84;;;11.81
13497;BMP180;6820;49.374;8.452;2022-11-20T03:14:36;100146.38;;;11.65
13497;BMP180;6820;49.374;8.452;2022-11-20T03:18:38;100144.00;;;11.53
13497;BMP180;6820;49.374;8.452;2022-11-20T03:22:40;100143.44;;;11.42
13497;BMP180;6820;49.374;8.452;2022-11-20T03:26:42;100148.44;;;11.41
13497;BMP180;6820;49.374;8.452;2022-11-20T03:30:43;100151.28;;;11.32
13497;BMP180;6820;49.374;8.452;2022-11-20T03:34:45;100138.06;;;11.38
13497;BMP180;6820;49.374;8.452;2022-11-20T03:38:47;100132.19;;;11.53
13497;BMP180;6820;49.374;8.452;2022-11-20T03:42:49;100125.84;;;11.61
13497;BMP180;6820;49.374;8.452;2022-11-20T03:46:50;100127.97;;;11.69
13497;BMP180;6820;49.374;8.452;2022-11-20T03:50:53;100131.56;;;11.73
13497;BMP180;6820;49.374;8.452;2022-11-20T03:54:55;100137.91;;;11.65
13497;BMP180;6820;49.374;8.452;2022-11-20T03:58:57;100136.25;;;11.65
13497;BMP180;6820;49.374;8.452;2022-11-20T04:02:59;100131.88;;;11.63
13497;BMP180;6820;49.374;8.452;2022-11-20T04:07:00;100113.72;;;11.71
13497;BMP180;6820;49.374;8.452;2022-11-20T04:11:13;100111.41;;;11.76
13497;BMP180;6820;49.374;8.452;2022-11-20T04:15:15;100114.09;;;11.79
13497;BMP180;6820;49.374;8.452;2022-11-20T04:19:17;100111.06;;;11.86
13497;BMP180;6820;49.374;8.452;2022-11-20T04:23:19;100126.63;;;11.91
13497;BMP180;6820;49.374;8.452;2022-11-20T04:27:27;100111.56;;;11.94
13497;BMP180;6820;49.374;8.452;2022-11-20T04:31:34;100115.34;;;12.02
13497;BMP180;6820;49.374;8.452;2022-11-20T04:35:36;100112.16;;;12.06
13497;BMP180;6820;49.374;8.452;2022-11-20T04:39:38;100119.63;;;12.03
13497;BMP180;6820;49.374;8.452;2022-11-20T04:43:39;100107.16;;;12.08
13497;BMP180;6820;49.374;8.452;2022-11-20T04:47:41;100101.53;;;12.13
13497;BMP180;6820;49.374;8.452;2022-11-20T04:51:42;100100.63;;;12.13
13497;BMP180;6820;49.374;8.452;2022-11-20T04:55:44;100099.84;;;12.14
13497;BMP180;6820;49.374;8.452;2022-11-20T04:59:46;100108.63;;;12.20
13497;BMP180;6820;49.374;8.452;2022-11-20T05:03:47;100105.78;;;12.14
13497;BMP180;6820;49.374;8.452;2022-11-20T05:07:49;100105.56;;;11.94
13497;BMP180;6820;49.374;8.452;2022-11-20T05:11:51;100098.84;;;11.94
13497;BMP180;6820;49.374;8.452;2022-11-20T05:15:52;100097.97;;;11.94
13497;BMP180;6820;49.374;8.452;2022-11-20T05:19:54;100097.59;;;12.02
13497;BMP180;6820;49.374;8.452;2022-11-20T05:23:55;100094.63;;;12.11
13497;BMP180;6820;49.374;8.452;2022-11-20T05:27:57;100094.09;;;12.17
13497;BMP180;6820;49.374;8.452;2022-11-20T05:31:58;100092.53;;;12.19
13497;BMP180;6820;49.374;8.452;2022-11-20T05:36:01;100075.59;;;12.20
13497;BMP180;6820;49.374;8.452;2022-11-20T05:40:03;100076.56;;;12.22
13497;BMP180;6820;49.374;8.452;2022-11-20T05:44:04;100090.28;;;12.25
13497;BMP180;6820;49.374;8.452;2022-11-20T05:48:06;100095.16;;;12.21
13497;BMP180;6820;49.374;8.452;2022-11-20T05:52:07;100099.56;;;12.08
13497;BMP180;6820;49.374;8.452;2022-11-20T05:56:11;100098.16;;;11.97
13497;BMP180;6820;49.374;8.452;2022-11-20T06:00:14;100089.63;;;11.96
13497;BMP180;6820;49.374;8.452;2022-11-20T06:04:15;100095.25;;;12.07
13497;BMP180;6820;49.374;8.452;2022-11-20T06:08:17;100073.72;;;12.16
13497;BMP180;6820;49.374;8.452;2022-11-20T06:12:19;100063.56;;;12.16
13497;BMP180;6820;49.374;8.452;2022-11-20T06:16:20;100071.91;;;12.14
13497;BMP180;6820;49.374;8.452;2022-11-20T06:20:23;100062.72;;;12.16
13497;BMP180;6820;49.374;8.452;2022-11-20T06:24:24;100063.06;;;12.23
13497;BMP180;6820;49.374;8.452;2022-11-20T06:28:26;100058.31;;;12.29
13497;BMP180;6820;49.374;8.452;2022-11-20T06:32:28;100052.31;;;12.28
13497;BMP180;6820;49.374;8.452;2022-11-20T06:36:29;100053.78;;;12.23
13497;BMP180;6820;49.374;8.452;2022-11-20T06:40:31;100057.41;;;12.28
13497;BMP180;6820;49.374;8.452;2022-11-20T06:44:32;100058.00;;;12.40
13497;BMP180;6820;49.374;8.452;2022-11-20T06:48:34;100062.78;;;12.51
13497;BMP180;6820;49.374;8.452;2022-11-20T06:52:36;100075.06;;;12.60
13497;BMP180;6820;49.374;8.452;2022-11-20T06:56:46;100071.06;;;12.65
13497;BMP180;6820;49.374;8.452;2022-11-20T07:00:49;100073.75;;;12.68
13497;BMP180;6820;49.374;8.452;2022-11-20T07:04:50;100086.56;;;12.69
13497;BMP180;6820;49.374;8.452;2022-11-20T07:08:52;100092.50;;;12.70
13497;BMP180;6820;49.374;8.452;2022-11-20T07:12:54;100093.47;;;12.72
13497;BMP180;6820;49.374;8.452;2022-11-20T07:16:56;100089.97;;;12.70
13497;BMP180;6820;49.374;8.452;2022-11-20T07:21:04;100082.66;;;12.76
13497;BMP180;6820;49.374;8.452;2022-11-20T07:25:07;100091.06;;;12.75
13497;BMP180;6820;49.374;8.452;2022-11-20T07:29:08;100091.06;;;12.75
13497;BMP180;6820;49.374;8.452;2022-11-20T07:33:10;100087.28;;;12.67
13497;BMP180;6820;49.374;8.452;2022-11-20T07:37:12;100083.78;;;12.65
13497;BMP180;6820;49.374;8.452;2022-11-20T07:41:14;100094.09;;;12.68
13497;BMP180;6820;49.374;8.452;2022-11-20T07:45:17;100092.00;;;12.77
13497;BMP180;6820;49.374;8.452;2022-11-20T07:49:19;100089.34;;;12.91
13497;BMP180;6820;49.374;8.452;2022-11-20T07:53:22;100094.94;;;13.01
13497;BMP180;6820;49.374;8.452;2022-11-20T07:57:23;100089.84;;;13.01
13497;BMP180;6820;49.374;8.452;2022-11-20T08:01:29;100101.97;;;13.07
13497;BMP180;6820;49.374;8.452;2022-11-20T08:05:30;100097.06;;;13.11
13497;BMP180;6820;49.374;8.452;2022-11-20T08:09:32;100087.94;;;13.14
13497;BMP180;6820;49.374;8.452;2022-11-20T08:13:33;100099.91;;;13.17
13497;BMP180;6820;49.374;8.452;2022-11-20T08:18:03;100102.19;;;13.30
13497;BMP180;6820;49.374;8.452;2022-11-20T08:22:25;100099.53;;;13.45
13497;BMP180;6820;49.374;8.452;2022-11-20T08:26:27;100099.97;;;13.54
13497;BMP180;6820;49.374;8.452;2022-11-20T08:30:29;100103.16;;;13.69
13497;BMP180;6820;49.374;8.452;2022-11-20T08:34:31;100099.28;;;13.77
13497;BMP180;6820;49.374;8.452;2022-11-20T08:38:32;100115.75;;;13.85
13497;BMP180;6820;49.374;8.452;2022-11-20T08:42:34;100126.41;;;13.95
13497;BMP180;6820;49.374;8.452;2022-11-20T08:46:40;100124.13;;;14.00
13497;BMP180;6820;49.374;8.452;2022-11-20T08:50:42;100129.50;;;14.07
13497;BMP180;6820;49.374;8.452;2022-11-20T08:54:43;100138.91;;;14.08
13497;BMP180;6820;49.374;8.452;2022-11-20T08:58:45;100144.00;;;14.08
13497;BMP180;6820;49.374;8.452;2022-11-20T09:03:06;100144.13;;;14.11
13497;BMP180;6820;49.374;8.452;2022-11-20T09:07:08;100151.09;;;14.15
13497;BMP180;6820;49.374;8.452;2022-11-20T09:11:10;100145.47;;;14.22
13497;BMP180;6820;49.374;8.452;2022-11-20T09:15:11;100146.78;;;14.32
13497;BMP180;6820;49.374;8.452;2022-11-20T09:19:13;100135.34;;;14.43
13497;BMP180;6820;49.374;8.452;2022-11-20T09:23:36;100134.13;;;14.54
13497;BMP180;6820;49.374;8.452;2022-11-20T09:27:38;100139.44;;;14.60
13497;BMP180;6820;49.374;8.452;2022-11-20T09:31:40;100138.28;;;14.52
13497;BMP180;6820;49.374;8.452;2022-11-20T09:35:42;100143.81;;;14.42
13497;BMP180;6820;49.374;8.452;2022-11-20T09:39:44;100149.09;;;14.47
13497;BMP180;6820;49.374;8.452;2022-11-20T09:44:11;100152.59;;;14.49
13497;BMP180;6820;49.374;8.452;2022-11-20T09:48:29;100169.50;;;14.28
13497;BMP180;6820;49.374;8.452;2022-11-20T09:56:50;100159.34;;;14.09
13497;BMP180;6820;49.374;8.452;2022-11-20T10:00:52;100164.31;;;14.06
13497;BMP180;6820;49.374;8.452;2022-11-20T10:05:17;100154.06;;;14.05
13497;BMP180;6820;49.374;8.452;2022-11-20T10:09:40;100147.09;;;14.01
13497;BMP180;6820;49.374;8.452;2022-11-20T10:31:08;100145.09;;;14.13
13497;BMP180;6820;49.374;8.452;2022-11-20T10:35:15;100133.38;;;14.18
13497;BMP180;6820;49.374;8.452;2022-11-20T10:43:51;100137.00;;;14.23
13497;BMP180;6820;49.374;8.452;2022-11-20T10:48:16;100133.47;;;14.01
13497;BMP180;6820;49.374;8.452;2022-11-20T10:52:41;100133.09;;;13.93
13497;BMP180;6820;49.374;8.452;2022-11-20T10:56:50;100135.41;;;14.06
13497;BMP180;6820;49.374;8.452;2022-11-20T11:00:52;100119.25;;;14.44
13497;BMP180;6820;49.374;8.452;2022-11-20T11:04:54;100122.16;;;14.73
13497;BMP180;6820;49.374;8.452;2022-11-20T11:08:58;100118.31;;;14.83
13497;BMP180;6820;49.374;8.452;2022-11-20T11:13:02;100116.81;;;14.67
13497;BMP180;6820;49.374;8.452;2022-11-20T11:17:03;100118.16;;;14.58
13497;BMP180;6820;49.374;8.452;2022-11-20T11:21:05;100098.06;;;14.45
13497;BMP180;6820;49.374;8.452;2022-11-20T11:25:18;100098.41;;;14.54
13497;BMP180;6820;49.374;8.452;2022-11-20T11:29:20;100088.72;;;14.66
13497;BMP180;6820;49.374;8.452;2022-11-20T11:33:28;100083.53;;;14.64
13497;BMP180;6820;49.374;8.452;2022-11-20T11:37:37;100084.06;;;14.56
13497;BMP180;6820;49.374;8.452;2022-11-20T11:41:40;100076.78;;;14.45
13497;BMP180;6820;49.374;8.452;2022-11-20T11:45:52;100079.28;;;14.63
13497;BMP180;6820;49.374;8.452;2022-11-20T11:54:22;100048.63;;;14.84
13497;BMP180;6820;49.374;8.452;2022-11-20T12:07:03;100054.94;;;15.36
13497;BMP180;6820;49.374;8.452;2022-11-20T12:15:43;100032.75;;;15.57
13497;BMP180;6820;49.374;8.452;2022-11-20T12:19:45;100037.06;;;15.83
13497;BMP180;6820;49.374;8.452;2022-11-20T12:24:14;100035.13;;;16.00
13497;BMP180;6820;49.374;8.452;2022-11-20T12:50:28;100019.00;;;16.78
13497;BMP180;6820;49.374;8.452;2022-11-20T13:03:26;100025.13;;;16.57
13497;BMP180;6820;49.374;8.452;2022-11-20T13:07:34;100016.41;;;16.50
13497;BMP180;6820;49.374;8.452;2022-11-20T13:16:04;99999.22;;;16.46
13497;BMP180;6820;49.374;8.452;2022-11-20T13:20:14;100000.09;;;16.47
13497;BMP180;6820;49.374;8.452;2022-11-20T13:28:29;99988.22;;;16.49
13497;BMP180;6820;49.374;8.452;2022-11-20T13:32:31;99990.78;;;16.49
13497;BMP180;6820;49.374;8.452;2022-11-20T13:36:33;99982.06;;;16.43
13497;BMP180;6820;49.374;8.452;2022-11-20T13:41:00;99971.66;;;16.37
13497;BMP180;6820;49.374;8.452;2022-11-20T13:45:30;99969.63;;;16.27
13497;BMP180;6820;49.374;8.452;2022-11-20T13:49:38;99973.63;;;16.20
13497;BMP180;6820;49.374;8.452;2022-11-20T13:58:47;99963.94;;;16.11
13497;BMP180;6820;49.374;8.452;2022-11-20T14:03:18;99963.06;;;16.10
13497;BMP180;6820;49.374;8.452;2022-11-20T14:07:42;99959.31;;;15.99
13497;BMP180;6820;49.374;8.452;2022-11-20T14:11:47;99976.09;;;15.93
13497;BMP180;6820;49.374;8.452;2022-11-20T14:15:56;99955.31;;;15.83
13497;BMP180;6820;49.374;8.452;2022-11-20T14:20:04;99960.88;;;15.71
13497;BMP180;6820;49.374;8.452;2022-11-20T14:24:11;99947.03;;;15.65
13497;BMP180;6820;49.374;8.452;2022-11-20T14:28:25;99947.47;;;15.53
13497;BMP180;6820;49.374;8.452;2022-11-20T14:32:29;99950.59;;;15.45
13497;BMP180;6820;49.374;8.452;2022-11-20T14:36:31;99947.63;;;15.33
13497;BMP180;6820;49.374;8.452;2022-11-20T14:40:35;99955.94;;;15.28
13497;BMP180;6820;49.374;8.452;2022-11-20T14:44:39;99944.88;;;15.27
13497;BMP180;6820;49.374;8.452;2022-11-20T14:48:51;99945.75;;;15.29
13497;BMP180;6820;49.374;8.452;2022-11-20T14:52:57;99943.97;;;15.27
13497;BMP180;6820;49.374;8.452;2022-11-20T14:57:02;99935.44;;;15.26
13497;BMP180;6820;49.374;8.452;2022-11-20T15:01:06;99931.16;;;15.25
13497;BMP180;6820;49.374;8.452;2022-11-20T15:05:09;99942.97;;;15.22
13497;BMP180;6820;49.374;8.452;2022-11-20T15:09:14;99932.75;;;15.22
13497;BMP180;6820;49.374;8.452;2022-11-20T15:13:23;99919.91;;;15.21
13497;BMP180;6820;49.374;8.452;2022-11-20T15:17:25;99923.31;;;15.20
13497;BMP180;6820;49.374;8.452;2022-11-20T15:21:27;99925.84;;;15.20
13497;BMP180;6820;49.374;8.452;2022-11-20T15:25:29;99920.78;;;15.21
13497;BMP180;6820;49.374;8.452;2022-11-20T15:29:31;99919.91;;;15.21
13497;BMP180;6820;49.374;8.452;2022-11-20T15:33:33;99917.38;;;15.21
13497;BMP180;6820;49.374;8.452;2022-11-20T15:37:35;99920.00;;;15.22
13497;BMP180;6820;49.374;8.452;2022-11-20T15:41:38;99917.47;;;15.23
13497;BMP180;6820;49.374;8.452;2022-11-20T15:45:43;99915.00;;;15.25
13497;BMP180;6820;49.374;8.452;2022-11-20T15:49:46;99909.06;;;15.26
13497;BMP180;6820;49.374;8.452;2022-11-20T15:53:47;99907.47;;;15.29
13497;BMP180;6820;49.374;8.452;2022-11-20T15:57:49;99894.78;;;15.31
13497;BMP180;6820;49.374;8.452;2022-11-20T16:01:50;99886.38;;;15.35
13497;BMP180;6820;49.374;8.452;2022-11-20T16:05:52;99891.56;;;15.36
13497;BMP180;6820;49.374;8.452;2022-11-20T16:09:54;99899.22;;;15.36
13497;BMP180;6820;49.374;8.452;2022-11-20T16:13:58;99895.53;;;15.28
13497;BMP180;6820;49.374;8.452;2022-11-20T16:18:19;99887.56;;;15.20
13497;BMP180;6820;49.374;8.452;2022-11-20T16:22:21;99880.78;;;15.20
13497;BMP180;6820;49.374;8.452;2022-11-20T16:26:23;99881.47;;;15.16
13497;BMP180;6820;49.374;8.452;2022-11-20T16:30:24;99875.41;;;15.13
13497;BMP180;6820;49.374;8.452;2022-11-20T16:34:26;99871.16;;;15.13
13497;BMP180;6820;49.374;8.452;2022-11-20T16:38:28;99870.28;;;15.13
13497;BMP180;6820;49.374;8.452;2022-11-20T16:42:35;99872.03;;;15.14
13497;BMP180;6820;49.374;8.452;2022-11-20T16:46:37;99866.91;;;15.14
13497;BMP180;6820;49.374;8.452;2022-11-20T16:50:52;99854.97;;;15.13
13497;BMP180;6820;49.374;8.452;2022-11-20T16:54:53;99852.44;;;15.13
13497;BMP180;6820;49.374;8.452;2022-11-20T16:58:57;99856.69;;;15.14
13497;BMP180;6820;49.374;8.452;2022-11-20T17:02:59;99869.59;;;15.17
13497;BMP180;6820;49.374;8.452;2022-11-20T17:07:00;99859.31;;;15.15
13497;BMP180;6820;49.374;8.452;2022-11-20T17:11:10;99858.50;;;15.16
13497;BMP180;6820;49.374;8.452;2022-11-20T17:15:12;99845.69;;;15.15
13497;BMP180;6820;49.374;8.452;2022-11-20T17:19:14;99839.78;;;15.16
13497;BMP180;6820;49.374;8.452;2022-11-20T17:23:16;99830.44;;;15.16
13497;BMP180;6820;49.374;8.452;2022-11-20T17:27:17;99830.38;;;15.15
13497;BMP180;6820;49.374;8.452;2022-11-20T17:31:19;99826.09;;;15.14
13497;BMP180;6820;49.374;8.452;2022-11-20T17:35:21;99823.50;;;15.12
13497;BMP180;6820;49.374;8.452;2022-11-20T17:39:22;99815.75;;;15.09
13497;BMP180;6820;49.374;8.452;2022-11-20T17:43:24;99808.09;;;15.09
13497;BMP180;6820;49.374;8.452;2022-11-20T17:47:25;99798.75;;;15.10
13497;BMP180;6820;49.374;8.452;2022-11-20T17:51:30;99795.22;;;15.08
13497;BMP180;6820;49.374;8.452;2022-11-20T17:55:31;99797.78;;;15.08
13497;BMP180;6820;49.374;8.452;2022-11-20T17:59:56;99799.47;;;15.07
13497;BMP180;6820;49.374;8.452;2022-11-20T18:03:58;99786.66;;;15.06
13497;BMP180;6820;49.374;8.452;2022-11-20T18:07:59;99784.09;;;15.06
13497;BMP180;6820;49.374;8.452;2022-11-20T18:12:01;99792.53;;;15.03
13497;BMP180;6820;49.374;8.452;2022-11-20T18:16:06;99785.69;;;15.02
13497;BMP180;6820;49.374;8.452;2022-11-20T18:20:08;99793.25;;;14.99
13497;BMP180;6820;49.374;8.452;2022-11-20T18:24:30;99791.41;;;14.95
13497;BMP180;6820;49.374;8.452;2022-11-20T18:28:36;99799.50;;;14.84
13497;BMP180;6820;49.374;8.452;2022-11-20T18:32:38;99796.56;;;14.74
13497;BMP180;6820;49.374;8.452;2022-11-20T18:36:40;99798.03;;;14.67
13497;BMP180;6820;49.374;8.452;2022-11-20T18:40:43;99789.34;;;14.62
13497;BMP180;6820;49.374;8.452;2022-11-20T18:44:44;99792.56;;;14.57
13497;BMP180;6820;49.374;8.452;2022-11-20T18:48:52;99774.69;;;14.56
13497;BMP180;6820;49.374;8.452;2022-11-20T18:52:53;99768.75;;;14.57
13497;BMP180;6820;49.374;8.452;2022-11-20T18:56:55;99762.53;;;14.49
13497;BMP180;6820;49.374;8.452;2022-11-20T19:01:06;99754.78;;;14.46
13497;BMP180;6820;49.374;8.452;2022-11-20T19:05:09;99752.16;;;14.44
13497;BMP180;6820;49.374;8.452;2022-11-20T19:09:12;99747.00;;;14.43
13497;BMP180;6820;49.374;8.452;2022-11-20T19:13:14;99752.81;;;14.39
13497;BMP180;6820;49.374;8.452;2022-11-20T19:17:15;99750.16;;;14.36
13497;BMP180;6820;49.374;8.452;2022-11-20T19:21:20;99750.91;;;14.33
13497;BMP180;6820;49.374;8.452;2022-11-20T19:25:22;99751.66;;;14.31
13497;BMP180;6820;49.374;8.452;2022-11-20T19:29:24;99753.31;;;14.29
13497;BMP180;6820;49.374;8.452;2022-11-20T19:33:27;99752.28;;;14.24
13497;BMP180;6820;49.374;8.452;2022-11-20T19:37:31;99750.50;;;14.23
13497;BMP180;6820;49.374;8.452;2022-11-20T19:41:36;99753.97;;;14.24
13497;BMP180;6820;49.374;8.452;2022-11-20T19:45:38;99749.72;;;14.24
13497;BMP180;6820;49.374;8.452;2022-11-20T19:49:39;99748.78;;;14.22
13497;BMP180;6820;49.374;8.452;2022-11-20T19:53:42;99746.25;;;14.22
13497;BMP180;6820;49.374;8.452;2022-11-20T19:57:43;99752.16;;;14.21
13497;BMP180;6820;49.374;8.452;2022-11-20T20:01:45;99740.22;;;14.20
13497;BMP180;6820;49.374;8.452;2022-11-20T20:05:46;99736.69;;;14.17
13497;BMP180;6820;49.374;8.452;2022-11-20T20:09:48;99737.53;;;14.16
13497;BMP180;6820;49.374;8.452;2022-11-20T20:13:49;99723.69;;;14.09
13497;BMP180;6820;49.374;8.452;2022-11-20T20:17:51;99729.38;;;14.02
13497;BMP180;6820;49.374;8.452;2022-11-20T20:21:53;99742.63;;;13.94
13497;BMP180;6820;49.374;8.452;2022-11-20T20:25:55;99740.56;;;13.86
13497;BMP180;6820;49.374;8.452;2022-11-20T20:29:56;99765.91;;;13.83
13497;BMP180;6820;49.374;8.452;2022-11-20T20:33:59;99773.97;;;13.93
13497;BMP180;6820;49.374;8.452;2022-11-20T20:38:00;99777.72;;;14.01
13497;BMP180;6820;49.374;8.452;2022-11-20T20:42:02;99765.16;;;14.05
13497;BMP180;6820;49.374;8.452;2022-11-20T20:46:06;99753.91;;;14.01
13497;BMP180;6820;49.374;8.452;2022-11-20T20:50:10;99745.81;;;13.89
13497;BMP180;6820;49.374;8.452;2022-11-20T20:54:12;99734.09;;;13.72
13497;BMP180;6820;49.374;8.452;2022-11-20T20:58:14;99736.06;;;13.57
13497;BMP180;6820;49.374;8.452;2022-11-20T21:02:15;99739.91;;;13.48
13497;BMP180;6820;49.374;8.452;2022-11-20T21:06:17;99743.84;;;13.40
13497;BMP180;6820;49.374;8.452;2022-11-20T21:10:18;99728.31;;;13.33
13497;BMP180;6820;49.374;8.452;2022-11-20T21:14:24;99734.88;;;13.28
13497;BMP180;6820;49.374;8.452;2022-11-20T21:18:26;99739.88;;;13.26
13497;BMP180;6820;49.374;8.452;2022-11-20T21:22:28;99742.50;;;13.28
13497;BMP180;6820;49.374;8.452;2022-11-20T21:26:36;99745.97;;;13.30
13497;BMP180;6820;49.374;8.452;2022-11-20T21:30:38;99746.78;;;13.29
13497;BMP180;6820;49.374;8.452;2022-11-20T21:34:39;99747.59;;;13.28
13497;BMP180;6820;49.374;8.452;2022-11-20T21:38:42;99732.25;;;13.26
13497;BMP180;6820;49.374;8.452;2022-11-20T21:42:43;99720.34;;;13.25
13497;BMP180;6820;49.374;8.452;2022-11-20T21:46:45;99724.50;;;13.23
13497;BMP180;6820;49.374;8.452;2022-11-20T21:50:47;99726.84;;;13.19
13497;BMP180;6820;49.374;8.452;2022-11-20T21:54:48;99736.06;;;13.15
13497;BMP180;6820;49.374;8.452;2022-11-20T21:58:51;99736.75;;;13.11
13497;BMP180;6820;49.374;8.452;2022-11-20T22:02:53;99727.47;;;13.13
13497;BMP180;6820;49.374;8.452;2022-11-20T22:06:55;99730.97;;;13.15
13497;BMP180;6820;49.374;8.452;2022-11-20T22:11:01;99736.28;;;13.21
13497;BMP180;6820;49.374;8.452;2022-11-20T22:15:04;99737.53;;;13.31
13497;BMP180;6820;49.374;8.452;2022-11-20T22:19:06;99741.03;;;13.33
13497;BMP180;6820;49.374;8.452;2022-11-20T22:23:07;99741.25;;;13.39
13497;BMP180;6820;49.374;8.452;2022-11-20T22:27:09;99745.75;;;13.45
13497;BMP180;6820;49.374;8.452;2022-11-20T22:31:10;99738.44;;;13.53
13497;BMP180;6820;49.374;8.452;2022-11-20T22:35:12;99746.38;;;13.60
13497;BMP180;6820;49.374;8.452;2022-11-20T22:39:14;99748.28;;;13.66
13497;BMP180;6820;49.374;8.452;2022-11-20T22:43:15;99746.72;;;13.69
13497;BMP180;6820;49.374;8.452;2022-11-20T22:47:17;99748.69;;;13.76
13497;BMP180;6820;49.374;8.452;2022-11-20T22:51:21;99760.16;;;13.87
13497;BMP180;6820;49.374;8.452;2022-11-20T22:55:23;99755.28;;;13.93
13497;BMP180;6820;49.374;8.452;2022-11-20T22:59:24;99740.09;;;13.96
13497;BMP180;6820;49.374;8.452;2022-11-20T23:03:26;99736.63;;;13.94
13497;BMP180;6820;49.374;8.452;2022-11-20T23:07:27;99742.63;;;13.94
13497;BMP180;6820;49.374;8.452;2022-11-20T23:11:30;99756.25;;;13.96
13497;BMP180;6820;49.374;8.452;2022-11-20T23:15:32;99751.38;;;14.01
13497;BMP180;6820;49.374;8.452;2022-11-20T23:19:34;99760.09;;;14.07
13497;BMP180;6820;49.374;8.452;2022-11-20T23:23:36;99754.34;;;14.12
13497;BMP180;6820;49.374;8.452;2022-11-20T23:27:38;99746.84;;;14.15
13497;BMP180;6820;49.374;8.452;2022-11-20T23:31:39;99770.00;;;14.21
13497;BMP180;6820;49.374;8.452;2022-11-20T23:35:41;99758.13;;;14.22
13497;BMP180;6820;49.374;8.452;2022-11-20T23:39:46;99739.25;;;14.17
13497;BMP180;6820;49.374;8.452;2022-11-20T23:43:48;99730.56;;;14.12
13497;BMP180;6820;49.374;8.452;2022-11-20T23:47:49;99732.81;;;14.04
13497;BMP180;6820;49.374;8.452;2022-11-20T23:51:51;99729.28;;;14.00
13497;BMP180;6820;49.374;8.452;2022-11-20T23:55:55;99732.44;;;13.94
13497;BMP180;6820;49.374;8.452;2022-11-20T23:59:57;99727.91;;;13.87
